createdAt,value
2018-07-26T00:01:11.366Z,98.47
2018-07-26T00:03:40.442Z,98.77
2018-07-26T00:06:09.574Z,97.79
2018-07-26T00:08:38.791Z,97.92
2018-07-26T00:11:07.929Z,96.57
2018-07-26T00:13:37.075Z,96.10
2018-07-26T00:16:06.532Z,96.12
2018-07-26T00:18:35.654Z,96.53
2018-07-26T00:21:05.072Z,98.46
2018-07-26T00:23:34.153Z,98.15
2018-07-26T00:26:03.950Z,96.40
2018-07-26T00:28:33.082Z,96.39
2018-07-26T00:31:02.225Z,95.51
2018-07-26T00:33:32.565Z,96.87
2018-07-26T00:36:01.631Z,95.54
2018-07-26T00:38:30.710Z,96.17
2018-07-26T00:40:59.816Z,97.79
2018-07-26T00:43:28.984Z,98.11
2018-07-26T00:45:58.060Z,97.10
2018-07-26T00:48:27.328Z,97.21
2018-07-26T00:50:56.457Z,97.03
2018-07-26T00:53:25.558Z,96.77
2018-07-26T00:55:54.701Z,96.30
2018-07-26T00:58:23.731Z,96.76
2018-07-26T01:00:52.780Z,97.46
2018-07-26T01:03:21.886Z,98.19
2018-07-26T01:05:50.967Z,97.63
2018-07-26T01:08:20.082Z,97.24
2018-07-26T01:10:49.231Z,96.44
2018-07-26T01:13:18.747Z,96.75
2018-07-26T01:15:47.865Z,97.55
2018-07-26T01:18:16.901Z,97.32
2018-07-26T01:20:46.033Z,96.52
2018-07-26T01:23:15.278Z,95.73
2018-07-26T01:25:44.474Z,96.46
2018-07-26T01:28:13.540Z,98.20
2018-07-26T01:30:42.690Z,98.11
2018-07-26T01:33:11.697Z,97.28
2018-07-26T01:35:40.775Z,96.85
2018-07-26T01:38:10.157Z,97.84
2018-07-26T01:40:39.226Z,97.92
2018-07-26T01:43:18.977Z,98.14
2018-07-26T01:45:48.155Z,96.75
2018-07-26T01:48:17.370Z,98.52
2018-07-26T01:50:46.520Z,99.09
2018-07-26T01:53:15.593Z,97.14
2018-07-26T01:55:44.615Z,96.70
2018-07-26T01:58:13.694Z,97.29
2018-07-26T02:00:42.904Z,97.10
2018-07-26T02:03:11.959Z,96.82
2018-07-26T02:05:41.112Z,97.27
2018-07-26T02:08:10.618Z,97.44
2018-07-26T02:10:39.678Z,97.19
2018-07-26T02:13:08.824Z,96.42
2018-07-26T02:15:37.932Z,97.82
2018-07-26T02:18:07.083Z,96.04
2018-07-26T02:20:36.126Z,96.71
2018-07-26T02:23:05.302Z,96.51
2018-07-26T02:25:34.455Z,97.81
2018-07-26T02:28:03.646Z,98.70
2018-07-26T02:30:32.714Z,96.76
2018-07-26T02:33:02.131Z,98.12
2018-07-26T02:35:31.271Z,98.06
2018-07-26T02:38:01.075Z,97.85
2018-07-26T02:40:30.409Z,97.82
2018-07-26T02:42:59.513Z,99.06
2018-07-26T02:45:28.757Z,99.65
2018-07-26T02:47:57.822Z,98.03
2018-07-26T02:50:26.913Z,97.86
2018-07-26T02:52:56.487Z,98.55
2018-07-26T02:55:25.661Z,99.09
2018-07-26T02:57:55.004Z,98.96
2018-07-26T03:00:24.083Z,98.83
2018-07-26T03:02:53.530Z,100.00
2018-07-26T03:05:22.706Z,98.79
2018-07-26T03:07:51.886Z,98.94
2018-07-26T03:10:20.997Z,98.69
2018-07-26T03:12:50.163Z,98.27
2018-07-26T03:15:19.507Z,98.47
2018-07-26T03:17:48.546Z,98.21
2018-07-26T03:20:17.767Z,98.07
2018-07-26T03:22:46.804Z,97.64
2018-07-26T03:25:15.936Z,99.06
2018-07-26T03:27:45.434Z,98.20
2018-07-26T03:30:14.791Z,98.13
2018-07-26T03:32:43.793Z,98.61
2018-07-26T03:35:12.909Z,97.56
2018-07-26T03:37:41.955Z,99.04
2018-07-26T03:40:11.005Z,98.40
2018-07-26T03:42:40.152Z,99.33
2018-07-26T03:45:09.414Z,99.46
2018-07-26T03:47:38.669Z,99.43
2018-07-26T03:50:07.772Z,97.55
2018-07-26T03:52:36.858Z,98.58
2018-07-26T03:55:05.952Z,98.54
2018-07-26T03:57:35.106Z,98.42
2018-07-26T04:00:04.274Z,98.62
2018-07-26T04:02:33.384Z,97.74
2018-07-26T04:05:02.466Z,98.48
2018-07-26T04:07:31.684Z,100.00
2018-07-26T04:10:00.816Z,99.55
2018-07-26T04:12:30.679Z,98.92
2018-07-26T04:14:59.867Z,99.01
2018-07-26T04:17:28.964Z,98.84
2018-07-26T04:19:58.899Z,99.35
2018-07-26T04:22:28.080Z,99.02
2018-07-26T04:24:57.191Z,99.19
2018-07-26T04:27:26.376Z,98.04
2018-07-26T04:29:55.504Z,98.23
2018-07-26T04:32:24.846Z,98.77
2018-07-26T04:34:54.051Z,99.75
2018-07-26T04:37:23.303Z,99.83
2018-07-26T04:39:52.412Z,99.05
2018-07-26T04:42:21.526Z,98.88
2018-07-26T04:44:50.743Z,98.85
2018-07-26T04:47:20.699Z,100.00
2018-07-26T04:49:49.771Z,100.00
2018-07-26T04:52:18.948Z,100.00
2018-07-26T04:54:48.373Z,100.00
2018-07-26T04:57:17.430Z,100.00
2018-07-26T04:59:46.951Z,100.00
2018-07-26T05:02:16.083Z,100.00
2018-07-26T05:04:45.137Z,100.00
2018-07-26T05:07:14.304Z,100.00
2018-07-26T05:09:44.114Z,99.91
2018-07-26T05:12:13.249Z,99.59
2018-07-26T05:14:42.345Z,99.62
2018-07-26T05:17:11.685Z,98.33
2018-07-26T05:19:40.795Z,97.80
2018-07-26T05:22:09.850Z,96.63
2018-07-26T05:24:39.072Z,97.43
2018-07-26T05:27:08.235Z,96.32
2018-07-26T05:29:37.702Z,94.92
2018-07-26T05:32:06.811Z,96.22
2018-07-26T05:34:36.109Z,94.41
2018-07-26T05:37:05.422Z,95.28
2018-07-26T05:39:34.560Z,94.40
2018-07-26T05:42:03.845Z,92.49
2018-07-26T05:44:33.826Z,89.81
2018-07-26T05:47:03.747Z,91.64
2018-07-26T05:49:32.894Z,91.89
2018-07-26T05:52:01.988Z,92.00
2018-07-26T05:54:31.146Z,92.02
2018-07-26T05:57:00.259Z,93.73
2018-07-26T05:59:29.999Z,94.93
2018-07-26T06:01:59.613Z,95.85
2018-07-26T06:04:30.538Z,96.39
2018-07-26T06:07:01.051Z,96.43
2018-07-26T06:09:30.259Z,97.15
2018-07-26T06:11:59.748Z,96.70
2018-07-26T06:14:29.955Z,98.85
2018-07-26T06:16:59.279Z,97.68
2018-07-26T06:19:28.557Z,98.09
2018-07-26T06:21:57.869Z,98.59
2018-07-26T06:24:27.085Z,97.32
2018-07-26T06:26:56.421Z,95.75
2018-07-26T06:29:25.683Z,97.32
2018-07-26T06:31:55.683Z,96.70
2018-07-26T06:34:24.836Z,96.70
2018-07-26T06:36:54.297Z,95.14
2018-07-26T06:39:23.621Z,93.89
2018-07-26T06:41:52.791Z,95.66
2018-07-26T06:44:24.034Z,95.39
2018-07-26T06:46:53.240Z,95.13
2018-07-26T06:49:22.520Z,88.84
2018-07-26T06:51:51.812Z,88.47
2018-07-26T06:54:20.852Z,90.58
2018-07-26T06:56:51.577Z,91.04
2018-07-26T06:59:21.941Z,89.47
2018-07-26T07:01:51.116Z,87.49
2018-07-26T07:04:21.086Z,86.08
2018-07-26T07:06:50.407Z,85.06
2018-07-26T07:09:19.602Z,83.12
2018-07-26T07:11:49.526Z,82.13
2018-07-26T07:14:18.816Z,80.05
2018-07-26T07:16:48.001Z,79.63
2018-07-26T07:19:17.138Z,77.33
2018-07-26T07:21:46.618Z,77.83
2018-07-26T07:24:20.723Z,78.54
2018-07-26T07:26:51.260Z,77.98
2018-07-26T07:29:21.406Z,78.46
2018-07-26T07:31:51.005Z,79.40
2018-07-26T07:34:20.197Z,82.56
2018-07-26T07:36:49.642Z,82.45
2018-07-26T07:39:18.864Z,81.09
2018-07-26T07:41:48.106Z,80.21
2018-07-26T07:44:17.194Z,81.49
2018-07-26T07:46:46.487Z,79.60
2018-07-26T07:49:15.901Z,79.43
2018-07-26T07:51:45.637Z,79.95
2018-07-26T07:54:14.826Z,77.50
2018-07-26T07:56:43.926Z,77.02
2018-07-26T07:59:13.111Z,74.86
2018-07-26T08:01:42.265Z,77.21
2018-07-26T08:04:11.401Z,78.05
2018-07-26T08:06:40.466Z,74.64
2018-07-26T08:09:12.111Z,74.62
2018-07-26T08:11:41.409Z,75.11
2018-07-26T08:14:10.929Z,75.09
2018-07-26T08:16:40.045Z,74.68
2018-07-26T08:19:09.324Z,74.10
2018-07-26T08:21:38.423Z,73.05
2018-07-26T08:24:07.679Z,72.95
2018-07-26T08:26:37.649Z,69.07
2018-07-26T08:29:06.757Z,72.24
2018-07-26T08:31:35.960Z,73.14
2018-07-26T08:34:05.095Z,68.40
2018-07-26T08:36:34.337Z,71.94
2018-07-26T08:39:03.583Z,70.17
2018-07-26T08:41:32.931Z,69.55
2018-07-26T08:44:02.030Z,68.68
2018-07-26T08:46:31.365Z,70.88
2018-07-26T08:49:00.616Z,68.54
2018-07-26T08:51:29.646Z,70.38
2018-07-26T08:53:59.129Z,66.69
2018-07-26T08:56:28.252Z,67.05
2018-07-26T08:58:57.368Z,68.68
2018-07-26T09:01:26.438Z,67.86
2018-07-26T09:03:55.641Z,68.50
2018-07-26T09:06:24.684Z,69.04
2018-07-26T09:08:53.792Z,69.71
2018-07-26T09:11:22.828Z,69.27
2018-07-26T09:13:52.003Z,70.45
2018-07-26T09:16:21.102Z,70.62
2018-07-26T09:18:50.278Z,70.72
2018-07-26T09:21:19.343Z,71.14
2018-07-26T09:23:48.554Z,71.44
2018-07-26T09:26:17.621Z,69.29
2018-07-26T09:28:47.509Z,68.68
2018-07-26T09:31:16.801Z,68.58
2018-07-26T09:33:45.990Z,67.79
2018-07-26T09:36:16.541Z,67.19
2018-07-26T09:38:45.821Z,67.26
2018-07-26T09:41:15.419Z,67.36
2018-07-26T09:43:45.277Z,64.92
2018-07-26T09:46:14.855Z,66.63
2018-07-26T09:48:44.795Z,64.23
2018-07-26T09:51:14.623Z,63.27
2018-07-26T09:53:43.983Z,60.20
2018-07-26T09:56:13.154Z,60.70
2018-07-26T09:58:42.189Z,61.21
2018-07-26T10:01:16.520Z,61.13
2018-07-26T10:03:45.530Z,62.87
2018-07-26T10:06:14.744Z,62.63
2018-07-26T10:08:43.854Z,63.19
2018-07-26T10:11:12.934Z,62.64
2018-07-26T10:13:42.199Z,62.96
2018-07-26T10:16:11.280Z,63.67
2018-07-26T10:18:40.463Z,61.88
2018-07-26T10:21:09.517Z,61.25
2018-07-26T10:23:38.735Z,59.40
2018-07-26T10:26:07.855Z,59.31
2018-07-26T10:28:37.823Z,59.35
2018-07-26T10:31:07.642Z,59.66
2018-07-26T10:33:36.746Z,56.70
2018-07-26T10:36:06.267Z,55.10
2018-07-26T10:38:35.304Z,54.56
2018-07-26T10:41:04.574Z,56.01
2018-07-26T10:43:33.687Z,55.36
2018-07-26T10:46:03.298Z,57.72
2018-07-26T10:48:32.651Z,57.67
2018-07-26T10:51:01.811Z,56.90
2018-07-26T10:53:31.000Z,56.79
2018-07-26T10:56:00.878Z,57.45
2018-07-26T10:58:29.984Z,57.50
2018-07-26T11:00:59.189Z,56.49
2018-07-26T11:03:28.248Z,57.86
2018-07-26T11:05:57.501Z,56.80
2018-07-26T11:08:26.674Z,56.67
2018-07-26T11:10:55.898Z,57.99
2018-07-26T11:13:25.077Z,56.53
2018-07-26T11:15:54.380Z,58.25
2018-07-26T11:18:23.630Z,56.20
2018-07-26T11:20:52.789Z,56.55
2018-07-26T11:23:21.939Z,54.73
2018-07-26T11:25:51.189Z,53.30
2018-07-26T11:28:20.248Z,54.36
2018-07-26T11:30:49.378Z,49.54
2018-07-26T11:33:18.442Z,51.96
2018-07-26T11:35:47.918Z,53.16
2018-07-26T11:38:17.074Z,52.56
2018-07-26T11:40:46.843Z,56.14
2018-07-26T11:43:16.058Z,52.22
2018-07-26T11:45:45.743Z,55.83
2018-07-26T11:48:14.846Z,53.95
2018-07-26T11:50:44.004Z,52.54
2018-07-26T11:53:13.491Z,56.43
2018-07-26T11:55:42.681Z,54.86
2018-07-26T11:58:11.993Z,52.68
2018-07-26T12:00:41.186Z,57.49
2018-07-26T12:03:10.497Z,59.01
2018-07-26T12:05:39.999Z,59.94
2018-07-26T12:08:09.221Z,57.58
2018-07-26T12:10:38.499Z,58.26
2018-07-26T12:13:08.735Z,59.02
2018-07-26T12:15:37.833Z,57.98
2018-07-26T12:18:07.135Z,60.19
2018-07-26T12:20:36.221Z,58.58
2018-07-26T12:23:05.517Z,58.33
2018-07-26T12:25:34.581Z,60.09
2018-07-26T12:28:03.839Z,63.07
2018-07-26T12:30:32.911Z,62.85
2018-07-26T12:33:02.056Z,60.13
2018-07-26T12:35:31.118Z,60.33
2018-07-26T12:38:00.325Z,57.81
2018-07-26T12:40:29.478Z,54.58
2018-07-26T12:42:58.784Z,53.84
2018-07-26T12:45:27.975Z,55.38
2018-07-26T12:47:57.085Z,53.78
2018-07-26T12:50:26.266Z,52.40
2018-07-26T12:52:55.462Z,48.19
2018-07-26T12:55:24.683Z,47.23
2018-07-26T12:57:53.927Z,50.97
2018-07-26T13:00:23.177Z,52.04
2018-07-26T13:02:52.392Z,52.10
2018-07-26T13:05:21.623Z,49.94
2018-07-26T13:07:50.834Z,46.62
2018-07-26T13:10:19.892Z,47.67
2018-07-26T13:12:49.183Z,46.63
2018-07-26T13:15:18.325Z,45.47
2018-07-26T13:17:47.553Z,45.48
2018-07-26T13:20:17.370Z,46.25
2018-07-26T13:22:46.756Z,44.30
2018-07-26T13:25:15.894Z,46.38
2018-07-26T13:27:45.057Z,46.27
2018-07-26T13:30:14.239Z,45.52
2018-07-26T13:32:43.377Z,47.02
2018-07-26T13:35:12.907Z,45.67
2018-07-26T13:37:42.148Z,45.70
2018-07-26T13:40:11.170Z,45.37
2018-07-26T13:42:40.299Z,46.56
2018-07-26T13:45:10.583Z,44.28
2018-07-26T13:47:39.833Z,44.03
2018-07-26T13:50:09.088Z,43.71
2018-07-26T13:52:39.160Z,42.81
2018-07-26T13:55:08.262Z,42.23
2018-07-26T13:57:37.380Z,42.24
2018-07-26T14:00:06.947Z,41.26
2018-07-26T14:02:36.727Z,42.59
2018-07-26T14:05:06.264Z,41.19
2018-07-26T14:07:35.580Z,39.40
2018-07-26T14:10:05.701Z,42.09
2018-07-26T14:12:35.042Z,44.05
2018-07-26T14:15:04.351Z,39.90
2018-07-26T14:17:33.723Z,43.72
2018-07-26T14:20:02.956Z,43.61
2018-07-26T14:22:32.108Z,45.17
2018-07-26T14:25:01.683Z,42.38
2018-07-26T14:27:30.856Z,43.92
2018-07-26T14:29:59.985Z,46.34
2018-07-26T14:32:29.455Z,43.30
2018-07-26T14:34:59.772Z,43.78
2018-07-26T14:37:30.544Z,45.52
2018-07-26T14:40:00.534Z,45.74
2018-07-26T14:42:30.204Z,45.78
2018-07-26T14:44:59.989Z,46.67
2018-07-26T14:47:30.183Z,45.44
2018-07-26T14:49:59.934Z,47.33
2018-07-26T14:52:29.496Z,49.14
2018-07-26T14:54:59.632Z,47.89
2018-07-26T14:57:29.049Z,48.88
2018-07-26T14:59:59.432Z,49.43
2018-07-26T15:02:30.838Z,45.93
2018-07-26T15:05:00.966Z,46.66
2018-07-26T15:07:30.509Z,47.80
2018-07-26T15:10:00.765Z,48.21
2018-07-26T15:12:30.110Z,46.26
2018-07-26T15:14:59.667Z,47.23
2018-07-26T15:17:29.600Z,45.85
2018-07-26T15:19:58.797Z,46.33
2018-07-26T15:22:27.976Z,46.41
2018-07-26T15:24:57.169Z,45.91
2018-07-26T15:27:26.229Z,45.85
2018-07-26T15:29:55.484Z,46.34
2018-07-26T15:32:24.606Z,46.42
2018-07-26T15:34:54.135Z,47.08
2018-07-26T15:37:23.174Z,47.65
2018-07-26T15:39:52.380Z,47.35
2018-07-26T15:42:21.429Z,49.16
2018-07-26T15:44:50.598Z,50.66
2018-07-26T15:47:19.959Z,54.27
2018-07-26T15:49:49.457Z,52.29
2018-07-26T15:52:18.703Z,53.33
2018-07-26T15:54:47.932Z,55.06
2018-07-26T15:57:17.133Z,56.66
2018-07-26T15:59:46.451Z,62.30
2018-07-26T16:02:15.576Z,62.98
2018-07-26T16:04:44.809Z,63.70
2018-07-26T16:07:14.005Z,63.22
2018-07-26T16:09:44.244Z,63.15
2018-07-26T16:12:13.463Z,63.69
2018-07-26T16:14:42.585Z,66.99
2018-07-26T16:17:11.733Z,66.87
2018-07-26T16:19:40.839Z,67.86
2018-07-26T16:22:10.241Z,67.86
2018-07-26T16:24:39.480Z,67.70
2018-07-26T16:27:08.592Z,67.47
2018-07-26T16:29:37.747Z,68.52
2018-07-26T16:32:06.903Z,69.89
2018-07-26T16:34:36.360Z,70.45
2018-07-26T16:37:05.929Z,71.02
2018-07-26T16:39:35.556Z,70.32
2018-07-26T16:42:04.803Z,70.48
2018-07-26T16:44:34.144Z,70.02
2018-07-26T16:47:03.268Z,70.21
2018-07-26T16:49:32.492Z,69.84
2018-07-26T16:52:02.041Z,69.76
2018-07-26T16:54:31.268Z,71.18
2018-07-26T16:57:00.335Z,71.20
2018-07-26T16:59:29.466Z,71.23
2018-07-26T17:01:58.708Z,71.54
2018-07-26T17:04:28.629Z,70.71
2018-07-26T17:06:58.317Z,72.44
2018-07-26T17:09:27.525Z,72.44
2018-07-26T17:11:56.579Z,73.69
2018-07-26T17:14:25.850Z,72.87
2018-07-26T17:16:54.973Z,71.56
2018-07-26T17:19:24.379Z,73.05
2018-07-26T17:21:53.560Z,72.79
2018-07-26T17:24:22.760Z,72.70
2018-07-26T17:26:51.993Z,72.36
2018-07-26T17:29:21.433Z,72.70
2018-07-26T17:31:50.745Z,72.26
2018-07-26T17:34:19.817Z,71.84
2018-07-26T17:36:49.048Z,71.58
2018-07-26T17:39:18.305Z,73.75
2018-07-26T17:41:47.523Z,73.66
2018-07-26T17:44:16.669Z,74.37
2018-07-26T17:46:45.781Z,74.33
2018-07-26T17:49:15.074Z,74.40
2018-07-26T17:51:44.240Z,74.46
2018-07-26T17:54:13.621Z,74.44
2018-07-26T17:56:42.774Z,73.39
2018-07-26T17:59:11.950Z,71.97
2018-07-26T18:01:41.024Z,70.81
2018-07-26T18:04:10.188Z,71.37
2018-07-26T18:06:39.235Z,71.84
2018-07-26T18:09:09.496Z,72.43
2018-07-26T18:11:38.845Z,72.23
2018-07-26T18:14:08.102Z,72.32
2018-07-26T18:16:37.439Z,74.17
2018-07-26T18:19:06.709Z,75.25
2018-07-26T18:21:35.803Z,76.14
2018-07-26T18:24:05.072Z,77.70
2018-07-26T18:26:34.308Z,78.31
2018-07-26T18:29:04.032Z,77.74
2018-07-26T18:31:33.244Z,77.80
2018-07-26T18:34:02.530Z,77.72
2018-07-26T18:36:33.022Z,77.50
2018-07-26T18:39:02.199Z,77.78
2018-07-26T18:41:31.345Z,78.96
2018-07-26T18:44:00.637Z,77.65
2018-07-26T18:46:29.757Z,78.76
2018-07-26T18:48:58.890Z,78.59
2018-07-26T18:51:28.321Z,79.12
2018-07-26T18:53:57.699Z,79.62
2018-07-26T18:56:26.818Z,79.11
2018-07-26T18:58:56.963Z,79.37
2018-07-26T19:01:26.166Z,79.00
2018-07-26T19:03:55.374Z,79.79
2018-07-26T19:06:24.519Z,80.14
2018-07-26T19:08:54.601Z,80.32
2018-07-26T19:11:23.816Z,80.93
2018-07-26T19:13:53.446Z,80.56
2018-07-26T19:16:23.237Z,82.56
2018-07-26T19:18:52.436Z,81.75
2018-07-26T19:21:21.855Z,81.92
2018-07-26T19:23:51.287Z,82.23
2018-07-26T19:26:21.585Z,82.16
2018-07-26T19:28:50.698Z,81.46
2018-07-26T19:31:20.138Z,81.15
2018-07-26T19:33:49.796Z,81.99
2018-07-26T19:36:19.825Z,83.04
2018-07-26T19:38:49.425Z,83.26
2018-07-26T19:41:18.744Z,83.59
2018-07-26T19:43:48.316Z,84.05
2018-07-26T19:46:17.696Z,83.24
2018-07-26T19:48:49.514Z,83.45
2018-07-26T19:51:19.614Z,84.69
2018-07-26T19:53:49.016Z,84.20
2018-07-26T19:56:18.303Z,85.64
2018-07-26T19:58:48.034Z,85.81
2018-07-26T20:01:17.600Z,84.96
2018-07-26T20:03:47.389Z,85.38
2018-07-26T20:06:16.662Z,85.04
2018-07-26T20:08:46.387Z,85.57
2018-07-26T20:11:16.508Z,86.36
2018-07-26T20:13:45.735Z,84.97
2018-07-26T20:16:14.926Z,86.40
2018-07-26T20:18:44.091Z,85.07
2018-07-26T20:21:13.239Z,85.37
2018-07-26T20:23:42.366Z,84.96
2018-07-26T20:26:11.564Z,84.94
2018-07-26T20:28:41.017Z,86.86
2018-07-26T20:31:12.304Z,86.75
2018-07-26T20:33:41.372Z,85.87
2018-07-26T20:36:10.802Z,85.96
2018-07-26T20:38:39.917Z,86.73
2018-07-26T20:41:09.220Z,87.00
2018-07-26T20:43:38.415Z,86.17
2018-07-26T20:46:07.770Z,87.28
2018-07-26T20:48:38.171Z,87.65
2018-07-26T20:51:07.627Z,88.79
2018-07-26T20:53:36.801Z,89.52
2018-07-26T20:56:06.130Z,89.64
2018-07-26T20:58:35.479Z,88.76
2018-07-26T21:01:04.801Z,88.45
2018-07-26T21:03:34.953Z,88.62
2018-07-26T21:06:04.136Z,88.79
2018-07-26T21:08:33.251Z,89.02
2018-07-26T21:11:02.485Z,88.84
2018-07-26T21:13:31.658Z,88.83
2018-07-26T21:16:00.780Z,88.33
2018-07-26T21:18:29.924Z,88.65
2018-07-26T21:20:59.014Z,88.35
2018-07-26T21:23:28.329Z,87.25
2018-07-26T21:25:57.439Z,87.77
2018-07-26T21:28:26.630Z,87.81
2018-07-26T21:30:55.830Z,88.21
2018-07-26T21:33:24.967Z,87.99
2018-07-26T21:35:54.525Z,90.24
2018-07-26T21:38:23.641Z,89.76
2018-07-26T21:40:52.946Z,90.18
2018-07-26T21:43:22.092Z,89.87
2018-07-26T21:45:51.319Z,89.46
2018-07-26T21:48:20.398Z,90.44
2018-07-26T21:50:49.608Z,90.49
2018-07-26T21:53:18.716Z,89.79
2018-07-26T21:55:47.891Z,89.39
2018-07-26T21:58:16.935Z,89.67
2018-07-26T22:01:00.250Z,89.37
2018-07-26T22:03:30.539Z,89.26
2018-07-26T22:05:59.661Z,90.11
2018-07-26T22:08:28.751Z,90.51
2018-07-26T22:10:57.964Z,90.39
2018-07-26T22:13:26.973Z,89.78
2018-07-26T22:15:56.160Z,89.81
2018-07-26T22:18:25.888Z,89.46
2018-07-26T22:20:55.026Z,90.37
2018-07-26T22:23:24.237Z,89.47
2018-07-26T22:25:53.408Z,89.86
2018-07-26T22:28:22.449Z,91.08
2018-07-26T22:30:51.673Z,90.31
2018-07-26T22:33:20.735Z,90.06
2018-07-26T22:35:49.888Z,89.55
2018-07-26T22:38:19.076Z,89.99
2018-07-26T22:40:48.233Z,89.78
2018-07-26T22:43:17.517Z,90.79
2018-07-26T22:45:46.628Z,91.08
2018-07-26T22:48:15.953Z,90.21
2018-07-26T22:50:45.165Z,89.83
2018-07-26T22:53:14.167Z,90.95
2018-07-26T22:55:43.194Z,90.69
2018-07-26T22:58:12.301Z,91.40
2018-07-26T23:00:41.317Z,90.81
2018-07-26T23:03:10.418Z,91.13
2018-07-26T23:05:39.479Z,91.12
2018-07-26T23:08:08.588Z,91.70
2018-07-26T23:10:37.929Z,90.29
2018-07-26T23:13:07.106Z,90.46
2018-07-26T23:15:36.135Z,91.36
2018-07-26T23:18:05.340Z,91.39
2018-07-26T23:20:34.480Z,91.67
2018-07-26T23:23:03.693Z,91.91
2018-07-26T23:25:32.989Z,92.07
2018-07-26T23:28:01.975Z,91.13
2018-07-26T23:30:31.086Z,90.62
2018-07-26T23:33:00.121Z,90.49
2018-07-26T23:35:29.253Z,90.82
2018-07-26T23:37:58.250Z,91.50
2018-07-26T23:40:27.383Z,91.90
2018-07-26T23:42:56.515Z,92.74
2018-07-26T23:45:26.050Z,91.38
2018-07-26T23:47:55.151Z,92.08
2018-07-26T23:50:24.261Z,91.74
2018-07-26T23:52:53.353Z,91.86
2018-07-26T23:55:23.335Z,92.49
2018-07-26T23:57:52.470Z,93.06
